createdAt,value
2023-04-18T00:01:33.227Z,9.30
2023-04-18T00:04:01.846Z,9.30
2023-04-18T00:06:29.854Z,9.20
2023-04-18T00:08:56.484Z,9.10
2023-04-18T00:11:23.285Z,9.00
2023-04-18T00:13:49.915Z,9.00
2023-04-18T00:16:16.881Z,9.00
2023-04-18T00:18:43.546Z,8.90
2023-04-18T00:21:10.228Z,8.90
2023-04-18T00:23:37.086Z,8.80
2023-04-18T00:26:04.320Z,8.70
2023-04-18T00:28:30.954Z,8.70
2023-04-18T00:30:57.587Z,8.60
2023-04-18T00:33:24.825Z,8.60
2023-04-18T00:35:52.345Z,8.50
2023-04-18T00:38:18.977Z,8.50
2023-04-18T00:40:47.996Z,8.50
2023-04-18T00:43:14.730Z,8.50
2023-04-18T00:45:41.486Z,8.40
2023-04-18T00:48:08.937Z,8.30
2023-04-18T00:50:37.420Z,8.30
2023-04-18T00:53:04.503Z,8.30
2023-04-18T00:55:31.442Z,8.20
2023-04-18T00:57:58.513Z,8.20
2023-04-18T01:00:25.475Z,8.20
2023-04-18T01:02:53.755Z,8.10
2023-04-18T01:05:21.493Z,8.10
2023-04-18T01:07:48.147Z,8.00
2023-04-18T01:10:15.529Z,8.00
2023-04-18T01:12:42.230Z,7.90
2023-04-18T01:15:09.033Z,7.90
2023-04-18T01:17:36.599Z,7.90
2023-04-18T01:20:06.692Z,7.90
2023-04-18T01:22:33.696Z,7.90
2023-04-18T01:25:00.470Z,7.80
2023-04-18T01:27:27.207Z,7.80
2023-04-18T01:29:53.982Z,7.80
2023-04-18T01:32:21.671Z,7.80
2023-04-18T01:34:48.571Z,7.80
2023-04-18T01:37:15.336Z,7.70
2023-04-18T01:39:41.963Z,7.70
2023-04-18T01:42:08.638Z,7.70
2023-04-18T01:44:35.281Z,7.60
2023-04-18T01:47:03.108Z,7.60
2023-04-18T01:49:32.654Z,7.50
2023-04-18T01:51:59.262Z,7.50
2023-04-18T01:54:25.878Z,7.60
2023-04-18T01:56:52.545Z,7.60
2023-04-18T01:59:19.202Z,7.60
2023-04-18T02:01:45.998Z,7.70
2023-04-18T02:04:13.345Z,7.60
2023-04-18T02:06:40.253Z,7.70
2023-04-18T02:09:06.919Z,7.60
2023-04-18T02:11:33.582Z,7.70
2023-04-18T02:14:02.907Z,7.60
2023-04-18T02:16:29.619Z,7.60
2023-04-18T02:18:56.403Z,7.60
2023-04-18T02:21:23.138Z,7.50
2023-04-18T02:23:49.874Z,7.50
2023-04-18T02:26:16.545Z,7.50
2023-04-18T02:28:43.186Z,7.50
2023-04-18T02:31:14.740Z,7.50
2023-04-18T02:33:43.038Z,7.40
2023-04-18T02:36:12.248Z,7.30
2023-04-18T02:38:38.864Z,7.30
2023-04-18T02:41:06.137Z,7.30
2023-04-18T02:43:33.224Z,7.20
2023-04-18T02:46:02.041Z,7.20
2023-04-18T02:48:28.800Z,7.20
2023-04-18T02:51:05.163Z,7.20
2023-04-18T02:53:35.147Z,7.10
2023-04-18T02:56:02.473Z,7.10
2023-04-18T02:58:49.692Z,7.00
2023-04-18T03:01:45.717Z,7.00
2023-04-18T03:04:15.839Z,7.00
2023-04-18T03:06:45.238Z,7.00
2023-04-18T03:09:12.004Z,7.10
2023-04-18T03:11:44.488Z,7.00
2023-04-18T03:14:12.177Z,7.00
2023-04-18T03:16:48.919Z,7.00
2023-04-18T03:19:19.782Z,7.00
2023-04-18T03:21:46.523Z,7.00
2023-04-18T03:24:13.643Z,6.90
2023-04-18T03:26:42.595Z,6.90
2023-04-18T03:29:10.066Z,6.80
2023-04-18T03:31:36.845Z,6.80
2023-04-18T03:34:03.489Z,6.80
2023-04-18T03:36:31.269Z,6.70
2023-04-18T03:38:58.190Z,6.70
2023-04-18T03:41:25.972Z,6.70
2023-04-18T03:43:54.371Z,6.60
2023-04-18T03:46:21.957Z,6.60
2023-04-18T03:48:51.503Z,6.60
2023-04-18T03:51:18.182Z,6.60
2023-04-18T03:53:46.231Z,6.60
2023-04-18T03:56:12.890Z,6.60
2023-04-18T03:58:49.519Z,6.50
2023-04-18T04:01:17.099Z,6.50
2023-04-18T04:03:43.962Z,6.40
2023-04-18T04:06:11.604Z,6.40
2023-04-18T04:08:38.633Z,6.40
2023-04-18T04:11:05.750Z,6.30
2023-04-18T04:13:33.049Z,6.30
2023-04-18T04:15:59.873Z,6.30
2023-04-18T04:18:30.919Z,6.30
2023-04-18T04:20:59.858Z,6.20
2023-04-18T04:23:36.498Z,6.30
2023-04-18T04:26:03.624Z,6.20
2023-04-18T04:28:57.146Z,6.20
2023-04-18T04:31:26.711Z,6.20
2023-04-18T04:33:53.430Z,6.20
2023-04-18T04:36:22.960Z,6.20
2023-04-18T04:38:52.168Z,6.20
2023-04-18T04:41:22.720Z,6.30
2023-04-18T04:43:51.060Z,6.20
2023-04-18T04:46:20.644Z,6.20
2023-04-18T04:48:49.649Z,6.30
2023-04-18T04:51:16.304Z,6.30
2023-04-18T04:53:43.271Z,6.20
2023-04-18T04:56:10.031Z,6.20
2023-04-18T04:58:36.973Z,6.30
2023-04-18T05:01:09.806Z,6.30
2023-04-18T05:03:37.656Z,6.30
2023-04-18T05:06:04.946Z,6.30
2023-04-18T05:08:31.592Z,6.30
2023-04-18T05:10:58.200Z,6.30
2023-04-18T05:13:24.816Z,6.40
2023-04-18T05:15:52.472Z,6.30
2023-04-18T05:18:19.233Z,6.30
2023-04-18T05:20:45.863Z,6.40
2023-04-18T05:23:12.555Z,6.30
2023-04-18T05:25:39.226Z,6.40
2023-04-18T05:28:05.892Z,6.40
2023-04-18T05:30:32.577Z,6.30
2023-04-18T05:32:59.331Z,6.40
2023-04-18T05:35:26.179Z,6.40
2023-04-18T05:37:52.825Z,6.50
2023-04-18T05:40:19.443Z,6.50
2023-04-18T05:42:46.043Z,6.50
2023-04-18T05:45:12.755Z,6.60
2023-04-18T05:47:39.405Z,6.70
2023-04-18T05:50:06.953Z,6.70
2023-04-18T05:52:33.658Z,6.70
2023-04-18T05:55:00.749Z,6.70
2023-04-18T05:57:27.393Z,6.70
2023-04-18T05:59:54.009Z,6.90
2023-04-18T06:02:21.020Z,7.00
2023-04-18T06:04:48.770Z,7.20
2023-04-18T06:07:15.762Z,7.50
2023-04-18T06:09:43.151Z,7.60
2023-04-18T06:12:09.866Z,7.70
2023-04-18T06:14:36.489Z,7.80
2023-04-18T06:17:03.217Z,8.00
2023-04-18T06:19:29.844Z,8.20
2023-04-18T06:21:56.613Z,8.40
2023-04-18T06:24:23.728Z,8.50
2023-04-18T06:26:50.387Z,8.40
2023-04-18T06:29:18.063Z,8.30
2023-04-18T06:31:46.540Z,8.30
2023-04-18T06:34:13.520Z,8.40
2023-04-18T06:36:40.357Z,8.40
2023-04-18T06:39:07.093Z,8.30
2023-04-18T06:41:33.793Z,8.40
2023-04-18T06:44:04.032Z,8.30
2023-04-18T06:46:32.085Z,8.40
2023-04-18T06:48:58.929Z,8.40
2023-04-18T06:51:25.652Z,8.40
2023-04-18T06:53:55.527Z,8.40
2023-04-18T06:56:22.653Z,8.30
2023-04-18T06:58:49.997Z,8.30
2023-04-18T07:01:16.743Z,8.30
2023-04-18T07:03:43.604Z,8.40
2023-04-18T07:06:10.907Z,8.40
2023-04-18T07:08:38.614Z,8.40
2023-04-18T07:11:06.271Z,8.40
2023-04-18T07:13:33.093Z,8.60
2023-04-18T07:15:59.814Z,8.50
2023-04-18T07:18:36.793Z,8.50
2023-04-18T07:21:07.176Z,8.50
2023-04-18T07:23:33.975Z,8.50
2023-04-18T07:26:02.419Z,8.40
2023-04-18T07:28:31.267Z,8.50
2023-04-18T07:30:58.320Z,8.60
2023-04-18T07:33:25.558Z,8.50
2023-04-18T07:35:52.952Z,8.80
2023-04-18T07:38:19.940Z,8.70
2023-04-18T07:40:46.602Z,8.60
2023-04-18T07:43:13.339Z,8.60
2023-04-18T07:45:42.935Z,8.70
2023-04-18T07:48:09.703Z,8.80
2023-04-18T07:50:36.395Z,8.80
2023-04-18T07:53:03.360Z,8.80
2023-04-18T07:55:30.554Z,8.90
2023-04-18T07:57:57.163Z,8.90
2023-04-18T08:00:24.693Z,8.80
2023-04-18T08:02:51.553Z,8.80
2023-04-18T08:05:21.499Z,8.80
2023-04-18T08:07:48.196Z,8.90
2023-04-18T08:10:14.835Z,8.90
2023-04-18T08:12:42.328Z,9.00
2023-04-18T08:15:09.490Z,9.00
2023-04-18T08:17:37.489Z,9.00
2023-04-18T08:20:07.123Z,8.90
2023-04-18T08:22:33.826Z,9.00
2023-04-18T08:25:04.842Z,9.10
2023-04-18T08:27:32.783Z,9.10
2023-04-18T08:29:59.734Z,9.20
2023-04-18T08:32:26.511Z,9.30
2023-04-18T08:34:53.745Z,9.30
2023-04-18T08:37:20.414Z,9.40
2023-04-18T08:39:47.045Z,9.40
2023-04-18T08:42:19.002Z,9.40
2023-04-18T08:44:47.148Z,9.50
2023-04-18T08:47:14.557Z,9.50
2023-04-18T08:49:42.500Z,9.60
2023-04-18T08:52:14.338Z,9.70
2023-04-18T08:54:42.206Z,9.80
2023-04-18T08:57:10.474Z,9.90
2023-04-18T08:59:37.088Z,9.90
2023-04-18T09:02:05.240Z,9.90
2023-04-18T09:04:36.952Z,9.90
2023-04-18T09:07:09.427Z,10.00
2023-04-18T09:09:52.548Z,10.00
2023-04-18T09:12:22.475Z,10.00
2023-04-18T09:14:51.433Z,10.10
2023-04-18T09:17:41.538Z,10.20
2023-04-18T09:20:13.088Z,10.30
2023-04-18T09:22:51.807Z,10.30
2023-04-18T09:25:46.249Z,10.40
2023-04-18T09:28:27.982Z,10.40
2023-04-18T09:31:11.529Z,10.40
2023-04-18T09:33:42.810Z,10.50
2023-04-18T09:36:30.997Z,10.70
2023-04-18T09:38:57.645Z,10.90
2023-04-18T09:41:24.522Z,11.40
2023-04-18T09:44:17.077Z,11.60
2023-04-18T09:46:47.460Z,11.60
2023-04-18T09:49:15.097Z,11.60
2023-04-18T09:51:44.298Z,11.60
2023-04-18T09:54:14.876Z,11.80
2023-04-18T09:56:44.870Z,12.20
2023-04-18T09:59:12.953Z,12.50
2023-04-18T10:01:41.092Z,12.70
2023-04-18T10:04:09.552Z,12.70
2023-04-18T10:06:39.719Z,12.90
2023-04-18T10:09:08.776Z,13.10
2023-04-18T10:11:35.983Z,13.20
2023-04-18T10:14:07.693Z,13.30
2023-04-18T10:16:36.426Z,13.20
2023-04-18T10:19:19.819Z,13.10
2023-04-18T10:21:57.100Z,12.90
2023-04-18T10:24:45.821Z,12.60
2023-04-18T10:27:12.574Z,12.50
2023-04-18T10:29:53.501Z,12.40
2023-04-18T10:32:23.065Z,12.40
2023-04-18T10:34:53.259Z,12.40
2023-04-18T10:37:19.939Z,12.40
2023-04-18T10:40:00.801Z,12.30
2023-04-18T10:42:45.645Z,12.50
2023-04-18T10:45:21.949Z,12.50
2023-04-18T10:47:48.867Z,12.60
2023-04-18T10:50:16.687Z,12.60
2023-04-18T10:52:43.636Z,12.60
2023-04-18T10:55:18.229Z,12.60
2023-04-18T10:57:47.026Z,12.80
2023-04-18T11:00:20.411Z,12.90
2023-04-18T11:02:53.626Z,12.90
2023-04-18T11:05:26.738Z,13.10
2023-04-18T11:07:53.651Z,13.10
2023-04-18T11:10:26.220Z,12.90
2023-04-18T11:12:54.568Z,12.90
2023-04-18T11:15:25.609Z,12.90
2023-04-18T11:18:03.684Z,12.90
2023-04-18T11:20:38.429Z,13.10
2023-04-18T11:23:20.892Z,13.40
2023-04-18T11:25:51.616Z,13.70
2023-04-18T11:28:24.581Z,13.80
2023-04-18T11:30:51.206Z,13.80
2023-04-18T11:33:18.011Z,13.90
2023-04-18T11:35:46.056Z,14.10
2023-04-18T11:38:14.095Z,14.20
2023-04-18T11:40:48.201Z,14.20
2023-04-18T11:43:23.474Z,14.20
2023-04-18T11:45:58.764Z,14.30
2023-04-18T11:48:38.436Z,14.30
2023-04-18T11:51:06.635Z,14.30
2023-04-18T11:53:38.347Z,14.20
2023-04-18T11:56:06.259Z,14.30
2023-04-18T11:58:34.391Z,14.40
2023-04-18T12:01:19.073Z,14.50
2023-04-18T12:04:06.569Z,14.60
2023-04-18T12:06:46.910Z,14.60
2023-04-18T12:09:15.140Z,14.70
2023-04-18T12:11:42.553Z,14.50
2023-04-18T12:14:22.207Z,14.50
2023-04-18T12:16:50.229Z,14.50
2023-04-18T12:19:16.994Z,14.70
2023-04-18T12:21:57.658Z,14.90
2023-04-18T12:24:25.069Z,15.00
2023-04-18T12:26:52.146Z,15.10
2023-04-18T12:29:19.042Z,15.10
2023-04-18T12:31:46.006Z,15.10
2023-04-18T12:34:13.145Z,15.20
2023-04-18T12:36:39.959Z,15.00
2023-04-18T12:39:06.582Z,15.00
2023-04-18T12:41:33.270Z,15.00
2023-04-18T12:44:00.278Z,15.00
2023-04-18T12:46:27.031Z,15.00
2023-04-18T12:48:53.631Z,15.10
2023-04-18T12:51:21.691Z,15.10
2023-04-18T12:53:48.320Z,15.00
2023-04-18T12:56:15.358Z,15.10
2023-04-18T12:58:41.995Z,15.30
2023-04-18T13:01:09.236Z,15.40
2023-04-18T13:03:36.662Z,15.40
2023-04-18T13:06:05.937Z,15.50
2023-04-18T13:08:32.607Z,15.50
2023-04-18T13:10:59.221Z,15.40
2023-04-18T13:13:26.641Z,15.40
2023-04-18T13:15:53.751Z,15.40
2023-04-18T13:18:20.439Z,15.50
2023-04-18T13:20:47.228Z,15.50
2023-04-18T13:23:13.852Z,15.50
2023-04-18T13:25:40.539Z,15.50
2023-04-18T13:28:08.336Z,15.40
2023-04-18T13:30:35.696Z,15.40
2023-04-18T13:33:02.531Z,15.50
2023-04-18T13:35:29.197Z,15.50
2023-04-18T13:37:55.972Z,15.50
2023-04-18T13:40:23.015Z,15.60
2023-04-18T13:42:49.587Z,15.60
2023-04-18T13:45:16.316Z,15.60
2023-04-18T13:47:43.102Z,15.70
2023-04-18T13:50:10.766Z,15.70
2023-04-18T13:52:37.367Z,15.50
2023-04-18T13:55:04.432Z,15.20
2023-04-18T13:57:32.124Z,15.10
2023-04-18T13:59:58.912Z,15.20
2023-04-18T14:02:25.835Z,15.30
2023-04-18T14:04:54.665Z,15.50
2023-04-18T14:07:21.873Z,15.70
2023-04-18T14:09:48.479Z,15.80
2023-04-18T14:12:15.172Z,15.90
2023-04-18T14:14:42.039Z,15.90
2023-04-18T14:17:08.624Z,16.00
2023-04-18T14:19:35.225Z,16.00
2023-04-18T14:22:01.943Z,15.80
2023-04-18T14:24:29.201Z,15.70
2023-04-18T14:26:55.807Z,15.80
2023-04-18T14:29:22.425Z,15.60
2023-04-18T14:31:49.060Z,15.40
2023-04-18T14:34:15.868Z,15.40
2023-04-18T14:36:42.472Z,15.30
2023-04-18T14:39:09.247Z,15.20
2023-04-18T14:41:36.016Z,15.20
2023-04-18T14:44:03.902Z,15.30
2023-04-18T14:46:30.663Z,15.40
2023-04-18T14:48:57.299Z,15.30
2023-04-18T14:51:23.993Z,15.20
2023-04-18T14:53:51.177Z,15.30
2023-04-18T14:56:20.859Z,15.20
2023-04-18T14:58:47.666Z,15.10
2023-04-18T15:01:14.325Z,15.00
2023-04-18T15:03:41.020Z,15.00
2023-04-18T15:06:07.961Z,15.00
2023-04-18T15:08:34.691Z,15.10
2023-04-18T15:11:06.572Z,15.20
2023-04-18T15:13:33.435Z,15.20
2023-04-18T15:16:00.153Z,15.20
2023-04-18T15:18:26.869Z,15.10
2023-04-18T15:20:53.751Z,15.10
2023-04-18T15:23:20.495Z,15.10
2023-04-18T15:25:47.105Z,15.20
2023-04-18T15:28:14.058Z,15.20
2023-04-18T15:30:40.761Z,15.20
2023-04-18T15:33:08.356Z,15.30
2023-04-18T15:35:36.068Z,15.10
2023-04-18T15:38:02.953Z,15.10
2023-04-18T15:40:29.905Z,15.10
2023-04-18T15:42:57.692Z,15.20
2023-04-18T15:45:24.347Z,15.10
2023-04-18T15:47:51.467Z,15.10
2023-04-18T15:50:18.425Z,14.90
2023-04-18T15:52:45.226Z,14.90
2023-04-18T15:55:13.082Z,14.90
2023-04-18T15:57:40.491Z,15.00
2023-04-18T16:00:15.684Z,15.00
2023-04-18T16:02:43.380Z,15.00
2023-04-18T16:05:12.171Z,15.20
2023-04-18T16:07:40.055Z,15.20
2023-04-18T16:10:09.891Z,15.30
2023-04-18T16:12:37.766Z,15.40
2023-04-18T16:15:06.769Z,15.40
2023-04-18T16:17:33.534Z,15.40
2023-04-18T16:20:00.253Z,15.40
2023-04-18T16:22:26.902Z,15.40
2023-04-18T16:24:53.559Z,15.30
2023-04-18T16:27:20.449Z,15.30
2023-04-18T16:29:47.283Z,15.30
2023-04-18T16:32:14.600Z,15.40
2023-04-18T16:34:41.281Z,15.40
2023-04-18T16:37:08.419Z,15.30
2023-04-18T16:39:35.248Z,15.20
2023-04-18T16:42:03.397Z,15.20
2023-04-18T16:44:30.604Z,15.20
2023-04-18T16:46:57.308Z,15.20
2023-04-18T16:49:24.261Z,15.20
2023-04-18T16:51:51.046Z,15.20
2023-04-18T16:54:17.893Z,15.20
2023-04-18T16:56:45.615Z,15.20
2023-04-18T16:59:12.212Z,15.10
2023-04-18T17:01:38.891Z,15.10
2023-04-18T17:04:05.779Z,15.00
2023-04-18T17:06:32.572Z,14.90
2023-04-18T17:08:59.433Z,14.90
2023-04-18T17:11:26.437Z,14.80
2023-04-18T17:13:53.241Z,14.80
2023-04-18T17:16:20.095Z,14.60
2023-04-18T17:18:46.862Z,14.70
2023-04-18T17:21:13.553Z,14.50
2023-04-18T17:23:42.255Z,14.40
2023-04-18T17:26:09.681Z,14.40
2023-04-18T17:28:36.516Z,14.40
2023-04-18T17:31:04.262Z,14.40
2023-04-18T17:33:31.510Z,14.40
2023-04-18T17:35:58.506Z,14.40
2023-04-18T17:38:25.338Z,14.50
2023-04-18T17:41:02.375Z,14.40
2023-04-18T17:43:29.331Z,14.40
2023-04-18T17:45:56.734Z,14.30
2023-04-18T17:48:23.358Z,14.30
2023-04-18T17:50:50.107Z,14.30
2023-04-18T17:53:17.428Z,14.30
2023-04-18T17:55:45.090Z,14.30
2023-04-18T17:58:12.185Z,14.30
2023-04-18T18:00:39.128Z,14.20
2023-04-18T18:03:08.638Z,14.20
2023-04-18T18:05:35.423Z,14.20
2023-04-18T18:08:02.029Z,14.20
2023-04-18T18:10:29.192Z,14.10
2023-04-18T18:12:56.021Z,14.10
2023-04-18T18:15:24.378Z,14.10
2023-04-18T18:17:51.829Z,14.00
2023-04-18T18:20:18.986Z,14.00
2023-04-18T18:22:46.110Z,13.90
2023-04-18T18:25:13.192Z,13.80
2023-04-18T18:27:40.679Z,13.80
2023-04-18T18:30:08.347Z,13.70
2023-04-18T18:32:35.071Z,13.60
2023-04-18T18:35:02.526Z,13.60
2023-04-18T18:37:29.161Z,13.60
2023-04-18T18:39:56.460Z,13.60
2023-04-18T18:42:23.288Z,13.60
2023-04-18T18:44:50.377Z,13.50
2023-04-18T18:47:19.015Z,13.50
2023-04-18T18:49:46.424Z,13.50
2023-04-18T18:52:13.014Z,13.50
2023-04-18T18:54:39.748Z,13.50
2023-04-18T18:57:06.401Z,13.40
2023-04-18T18:59:33.065Z,13.40
2023-04-18T19:01:59.892Z,13.40
2023-04-18T19:04:26.750Z,13.40
2023-04-18T19:06:54.045Z,13.40
2023-04-18T19:09:21.104Z,13.40
2023-04-18T19:11:47.780Z,13.30
2023-04-18T19:14:15.302Z,13.40
2023-04-18T19:16:41.925Z,13.30
2023-04-18T19:19:08.551Z,13.30
2023-04-18T19:21:35.319Z,13.40
2023-04-18T19:24:02.169Z,13.30
2023-04-18T19:26:28.977Z,13.30
2023-04-18T19:28:55.897Z,13.30
2023-04-18T19:31:22.567Z,13.30
2023-04-18T19:33:49.997Z,13.40
2023-04-18T19:36:16.660Z,13.30
2023-04-18T19:38:43.288Z,13.20
2023-04-18T19:41:10.017Z,13.10
2023-04-18T19:43:38.345Z,13.10
2023-04-18T19:46:05.161Z,13.00
2023-04-18T19:48:32.105Z,13.10
2023-04-18T19:50:58.739Z,13.10
2023-04-18T19:53:25.947Z,13.10
2023-04-18T19:55:54.768Z,13.10
2023-04-18T19:58:35.529Z,13.10
2023-04-18T20:01:02.268Z,13.00
2023-04-18T20:03:29.153Z,13.00
2023-04-18T20:05:56.034Z,13.00
2023-04-18T20:08:22.753Z,12.90
2023-04-18T20:10:49.465Z,12.90
2023-04-18T20:13:16.266Z,12.90
2023-04-18T20:15:42.945Z,12.90
2023-04-18T20:18:09.674Z,12.80
2023-04-18T20:20:36.478Z,12.80
2023-04-18T20:23:03.362Z,12.80
2023-04-18T20:25:30.170Z,12.80
2023-04-18T20:27:57.237Z,12.90
2023-04-18T20:30:24.772Z,12.70
2023-04-18T20:32:51.583Z,12.80
2023-04-18T20:35:19.787Z,12.70
2023-04-18T20:37:46.429Z,12.80
2023-04-18T20:40:13.105Z,12.80
2023-04-18T20:42:40.239Z,12.80
2023-04-18T20:45:11.034Z,12.70
2023-04-18T20:47:41.028Z,12.70
2023-04-18T20:50:08.713Z,12.80
2023-04-18T20:52:35.406Z,12.70
2023-04-18T20:55:02.258Z,12.70
2023-04-18T20:57:29.398Z,12.80
2023-04-18T20:59:58.521Z,12.70
2023-04-18T21:02:26.344Z,12.70
2023-04-18T21:04:53.349Z,12.60
2023-04-18T21:07:20.268Z,12.60
2023-04-18T21:09:46.931Z,12.60
2023-04-18T21:12:13.604Z,12.60
2023-04-18T21:14:40.286Z,12.60
2023-04-18T21:17:06.956Z,12.50
2023-04-18T21:19:33.760Z,12.50
2023-04-18T21:22:00.399Z,12.50
2023-04-18T21:24:27.067Z,12.50
2023-04-18T21:26:53.714Z,12.50
2023-04-18T21:29:21.593Z,12.50
2023-04-18T21:31:50.091Z,12.50
2023-04-18T21:34:16.901Z,12.40
2023-04-18T21:36:43.772Z,12.40
2023-04-18T21:39:10.448Z,12.40
2023-04-18T21:41:37.989Z,12.40
2023-04-18T21:44:04.939Z,12.40
2023-04-18T21:46:31.647Z,12.40
2023-04-18T21:48:58.454Z,12.40
2023-04-18T21:51:25.224Z,12.40
2023-04-18T21:53:52.668Z,12.40
2023-04-18T21:56:19.587Z,12.40
2023-04-18T21:58:46.287Z,12.40
2023-04-18T22:01:12.975Z,12.40
2023-04-18T22:03:39.954Z,12.40
2023-04-18T22:06:06.808Z,12.30
2023-04-18T22:08:33.818Z,12.40
2023-04-18T22:11:00.611Z,12.30
2023-04-18T22:13:32.967Z,12.40
2023-04-18T22:16:03.451Z,12.30
2023-04-18T22:18:33.507Z,12.30
2023-04-18T22:21:02.322Z,12.30
2023-04-18T22:23:30.249Z,12.30
2023-04-18T22:25:57.099Z,12.30
2023-04-18T22:28:24.017Z,12.30
2023-04-18T22:30:51.325Z,12.30
2023-04-18T22:33:18.149Z,12.30
2023-04-18T22:35:46.230Z,12.30
2023-04-18T22:38:12.996Z,12.30
2023-04-18T22:40:39.688Z,12.30
2023-04-18T22:43:06.347Z,12.20
2023-04-18T22:45:34.401Z,12.20
2023-04-18T22:48:01.709Z,12.10
2023-04-18T22:50:30.152Z,12.20
2023-04-18T22:52:57.312Z,12.20
2023-04-18T22:55:24.772Z,12.10
2023-04-18T22:57:51.430Z,12.10
2023-04-18T23:00:18.292Z,12.10
2023-04-18T23:02:45.612Z,12.20
2023-04-18T23:05:12.348Z,12.20
2023-04-18T23:07:39.040Z,12.10
2023-04-18T23:10:06.806Z,12.20
2023-04-18T23:12:33.536Z,12.20
2023-04-18T23:15:00.436Z,12.20
2023-04-18T23:17:27.098Z,12.10
2023-04-18T23:19:53.981Z,12.10
2023-04-18T23:22:21.257Z,12.10
2023-04-18T23:24:47.963Z,12.10
2023-04-18T23:27:15.433Z,12.10
2023-04-18T23:29:42.414Z,12.20
2023-04-18T23:32:09.579Z,12.10
2023-04-18T23:34:36.228Z,12.10
2023-04-18T23:37:03.452Z,12.00
2023-04-18T23:39:30.151Z,12.00
2023-04-18T23:41:56.805Z,12.00
2023-04-18T23:44:24.126Z,12.10
2023-04-18T23:46:50.803Z,12.10
2023-04-18T23:49:17.521Z,12.10
2023-04-18T23:51:44.192Z,12.00
2023-04-18T23:54:11.068Z,12.00
2023-04-18T23:56:37.796Z,12.00
2023-04-18T23:59:04.460Z,12.00
